createdAt,value
2022-10-11T00:01:41.709Z,11.65
2022-10-11T00:04:09.486Z,7.97
2022-10-11T00:06:37.856Z,9.65
2022-10-11T00:09:05.662Z,9.95
2022-10-11T00:11:32.761Z,11.25
2022-10-11T00:13:59.179Z,9.98
2022-10-11T00:16:25.603Z,8.57
2022-10-11T00:18:52.223Z,9.30
2022-10-11T00:21:20.565Z,11.73
2022-10-11T00:23:47.816Z,9.13
2022-10-11T00:26:14.447Z,11.70
2022-10-11T00:28:41.461Z,9.23
2022-10-11T00:31:12.082Z,11.55
2022-10-11T00:33:38.619Z,13.18
2022-10-11T00:36:06.269Z,11.80
2022-10-11T00:38:33.181Z,10.57
2022-10-11T00:41:00.702Z,9.32
2022-10-11T00:43:29.855Z,9.93
2022-10-11T00:45:56.300Z,11.27
2022-10-11T00:48:36.412Z,6.53
2022-10-11T00:51:07.269Z,8.25
2022-10-11T00:53:34.142Z,8.38
2022-10-11T00:56:10.239Z,11.57
2022-10-11T00:58:38.145Z,7.97
2022-10-11T01:01:04.656Z,10.02
2022-10-11T01:03:31.810Z,7.35
2022-10-11T01:05:58.256Z,9.40
2022-10-11T01:08:25.566Z,8.45
2022-10-11T01:10:52.105Z,10.25
2022-10-11T01:13:32.401Z,11.65
2022-10-11T01:16:26.161Z,11.35
2022-10-11T01:19:21.947Z,7.35
2022-10-11T01:21:53.783Z,16.80
2022-10-11T01:24:46.913Z,8.50
2022-10-11T01:27:54.480Z,12.57
2022-10-11T01:30:32.918Z,11.70
2022-10-11T01:33:05.262Z,9.20
2022-10-11T01:35:45.801Z,17.02
2022-10-11T01:38:30.073Z,10.48
2022-10-11T01:41:02.530Z,6.45
2022-10-11T01:43:29.723Z,11.73
2022-10-11T01:45:58.040Z,12.95
2022-10-11T01:48:25.002Z,10.20
2022-10-11T01:51:03.106Z,9.50
2022-10-11T01:53:53.489Z,15.00
2022-10-11T01:56:28.397Z,11.88
2022-10-11T01:59:14.738Z,17.33
2022-10-11T02:02:11.763Z,9.38
2022-10-11T02:04:48.146Z,12.85
2022-10-11T02:07:21.835Z,9.65
2022-10-11T02:09:57.894Z,12.77
2022-10-11T02:12:32.203Z,6.95
2022-10-11T02:15:02.706Z,10.50
2022-10-11T02:17:33.887Z,11.98
2022-10-11T02:20:06.723Z,18.92
2022-10-11T02:22:38.631Z,11.07
2022-10-11T02:25:09.829Z,14.05
2022-10-11T02:27:38.699Z,20.02
2022-10-11T02:30:08.112Z,12.05
2022-10-11T02:32:36.344Z,11.10
2022-10-11T02:35:03.650Z,12.88
2022-10-11T02:37:39.377Z,8.10
2022-10-11T02:40:27.579Z,11.00
2022-10-11T02:43:03.410Z,12.48
2022-10-11T02:45:42.719Z,8.95
2022-10-11T02:48:11.621Z,10.18
2022-10-11T02:50:40.388Z,11.57
2022-10-11T02:53:07.227Z,10.00
2022-10-11T02:55:34.126Z,11.35
2022-10-11T02:58:01.050Z,7.97
2022-10-11T03:00:28.093Z,10.93
2022-10-11T03:02:54.489Z,8.98
2022-10-11T03:05:20.976Z,11.10
2022-10-11T03:07:47.426Z,11.55
2022-10-11T03:10:13.997Z,12.05
2022-10-11T03:12:40.506Z,11.30
2022-10-11T03:15:07.338Z,8.85
2022-10-11T03:17:37.443Z,7.75
2022-10-11T03:20:05.473Z,11.43
2022-10-11T03:22:32.090Z,10.70
2022-10-11T03:25:03.354Z,14.40
2022-10-11T03:29:57.083Z,7.32
2022-10-11T03:32:23.618Z,6.90
2022-10-11T03:34:50.038Z,8.23
2022-10-11T03:37:18.195Z,10.68
2022-10-11T03:39:45.680Z,14.05
2022-10-11T03:42:12.731Z,14.02
2022-10-11T03:44:39.271Z,13.32
2022-10-11T03:47:06.117Z,12.57
2022-10-11T03:49:32.521Z,13.23
2022-10-11T03:51:59.131Z,14.05
2022-10-11T03:54:25.829Z,16.05
2022-10-11T03:56:52.367Z,10.93
2022-10-11T03:59:18.906Z,14.15
2022-10-11T04:01:46.037Z,11.13
2022-10-11T04:04:12.559Z,7.55
2022-10-11T04:06:39.107Z,11.38
2022-10-11T04:09:05.536Z,18.05
2022-10-11T04:11:31.962Z,14.95
2022-10-11T04:13:58.557Z,10.77
2022-10-11T04:16:25.084Z,10.10
2022-10-11T04:18:51.532Z,13.05
2022-10-11T04:21:17.947Z,12.02
2022-10-11T04:23:44.361Z,12.07
2022-10-11T04:26:10.871Z,14.57
2022-10-11T04:28:37.484Z,16.98
2022-10-11T04:31:05.110Z,10.93
2022-10-11T04:33:31.565Z,11.75
2022-10-11T04:35:57.967Z,10.63
2022-10-11T04:38:24.486Z,13.10
2022-10-11T04:40:51.147Z,21.35
2022-10-11T04:43:18.908Z,15.52
2022-10-11T04:45:45.362Z,18.95
2022-10-11T04:48:11.895Z,16.25
2022-10-11T04:50:38.394Z,17.55
2022-10-11T04:53:04.850Z,14.13
2022-10-11T04:55:31.273Z,10.63
2022-10-11T04:57:57.864Z,13.38
2022-10-11T05:00:24.329Z,9.85
2022-10-11T05:02:52.170Z,15.38
2022-10-11T05:05:18.574Z,12.88
2022-10-11T05:07:45.047Z,17.63
2022-10-11T05:10:11.484Z,20.58
2022-10-11T05:12:37.921Z,12.02
2022-10-11T05:15:04.749Z,14.23
2022-10-11T05:17:31.357Z,23.95
2022-10-11T05:19:57.814Z,6.47
2022-10-11T05:22:24.370Z,12.98
2022-10-11T05:24:50.855Z,10.23
2022-10-11T05:27:17.314Z,18.52
2022-10-11T05:29:43.818Z,15.43
2022-10-11T05:32:10.269Z,14.38
2022-10-11T05:34:36.698Z,17.77
2022-10-11T05:37:03.150Z,16.38
2022-10-11T05:39:29.852Z,16.48
2022-10-11T05:41:56.840Z,14.18
2022-10-11T05:44:23.278Z,16.23
2022-10-11T05:46:49.881Z,16.48
2022-10-11T05:49:16.326Z,16.05
2022-10-11T05:51:42.729Z,20.73
2022-10-11T05:54:09.241Z,14.77
2022-10-11T05:56:35.681Z,16.92
2022-10-11T05:59:02.709Z,20.60
2022-10-11T06:01:29.563Z,20.60
2022-10-11T06:03:56.062Z,20.85
2022-10-11T06:06:22.546Z,14.27
2022-10-11T06:08:49.145Z,19.27
2022-10-11T06:11:21.819Z,13.25
2022-10-11T06:13:48.695Z,10.43
2022-10-11T06:16:16.114Z,17.40
2022-10-11T06:18:42.515Z,17.27
2022-10-11T06:21:09.010Z,11.77
2022-10-11T06:23:35.451Z,19.75
2022-10-11T06:26:07.675Z,21.33
2022-10-11T06:28:35.830Z,23.83
2022-10-11T06:31:05.370Z,20.77
2022-10-11T06:33:31.954Z,26.33
2022-10-11T06:36:00.312Z,24.63
2022-10-11T06:38:27.533Z,20.88
2022-10-11T06:40:54.101Z,33.35
2022-10-11T06:43:21.217Z,16.90
2022-10-11T06:45:47.606Z,22.75
2022-10-11T06:48:14.256Z,20.85
2022-10-11T06:50:59.009Z,24.45
2022-10-11T06:53:26.236Z,42.85
2022-10-11T06:55:52.711Z,15.90
2022-10-11T06:58:19.384Z,16.83
2022-10-11T07:00:45.966Z,16.33
2022-10-11T07:03:12.399Z,18.88
2022-10-11T07:05:38.843Z,17.92
2022-10-11T07:08:05.712Z,13.70
2022-10-11T07:10:32.124Z,17.80
2022-10-11T07:13:00.898Z,13.98
2022-10-11T07:15:27.290Z,16.75
2022-10-11T07:17:53.896Z,17.67
2022-10-11T07:20:20.345Z,14.30
2022-10-11T07:22:46.835Z,17.58
2022-10-11T07:25:13.246Z,17.80
2022-10-11T07:27:39.773Z,11.90
2022-10-11T07:30:06.758Z,14.57
2022-10-11T07:32:33.187Z,18.95
2022-10-11T07:34:59.641Z,15.43
2022-10-11T07:37:26.047Z,15.07
2022-10-11T07:39:52.480Z,13.30
2022-10-11T07:42:20.360Z,9.43
2022-10-11T07:44:46.851Z,12.52
2022-10-11T07:47:13.340Z,13.35
2022-10-11T07:49:39.762Z,14.35
2022-10-11T07:52:06.198Z,12.20
2022-10-11T07:54:33.558Z,9.60
2022-10-11T07:56:59.974Z,9.43
2022-10-11T07:59:26.432Z,10.00
2022-10-11T08:01:52.883Z,13.00
2022-10-11T08:04:21.206Z,11.73
2022-10-11T08:06:51.070Z,10.77
2022-10-11T08:09:19.859Z,10.95
2022-10-11T08:11:46.321Z,13.05
2022-10-11T08:14:12.752Z,11.82
2022-10-11T08:16:39.697Z,11.02
2022-10-11T08:19:06.652Z,7.97
2022-10-11T08:21:33.341Z,11.70
2022-10-11T08:24:01.750Z,13.13
2022-10-11T08:26:28.227Z,8.82
2022-10-11T08:28:54.707Z,13.40
2022-10-11T08:31:21.271Z,11.93
2022-10-11T08:33:47.704Z,14.25
2022-10-11T08:36:14.152Z,11.82
2022-10-11T08:38:40.997Z,14.55
2022-10-11T08:41:43.579Z,15.10
2022-10-11T08:44:58.205Z,12.82
2022-10-11T08:47:27.503Z,14.05
2022-10-11T08:49:54.853Z,11.55
2022-10-11T08:52:26.727Z,15.52
2022-10-11T08:55:01.479Z,12.52
2022-10-11T08:57:31.531Z,8.82
2022-10-11T09:00:00.705Z,8.73
2022-10-11T09:03:07.440Z,9.48
2022-10-11T09:05:57.219Z,12.23
2022-10-11T09:08:41.876Z,9.43
2022-10-11T09:11:35.147Z,18.83
2022-10-11T09:14:27.802Z,12.00
2022-10-11T09:17:05.963Z,13.05
2022-10-11T09:19:57.175Z,11.90
2022-10-11T09:22:38.237Z,12.65
2022-10-11T09:25:25.373Z,12.18
2022-10-11T09:28:03.264Z,12.65
2022-10-11T09:30:30.814Z,11.00
2022-10-11T09:33:20.534Z,9.85
2022-10-11T09:35:49.999Z,10.65
2022-10-11T09:38:48.879Z,10.60
2022-10-11T09:41:23.385Z,9.82
2022-10-11T09:43:51.654Z,11.75
2022-10-11T09:46:23.451Z,11.60
2022-10-11T09:48:51.085Z,10.93
2022-10-11T09:51:21.260Z,13.77
2022-10-11T09:53:54.937Z,11.07
2022-10-11T09:56:23.438Z,9.07
2022-10-11T09:58:50.144Z,12.27
2022-10-11T10:01:24.932Z,9.93
2022-10-11T10:04:11.823Z,10.38
2022-10-11T10:06:38.873Z,12.48
2022-10-11T10:09:25.996Z,9.65
2022-10-11T10:11:54.878Z,11.15
2022-10-11T10:14:25.261Z,10.82
2022-10-11T10:17:04.236Z,13.52
2022-10-11T10:19:44.497Z,10.07
2022-10-11T10:22:28.384Z,11.30
2022-10-11T10:27:28.522Z,11.48
2022-10-11T10:30:09.508Z,10.88
2022-10-11T10:32:48.548Z,8.60
2022-10-11T10:35:30.030Z,11.30
2022-10-11T10:38:22.815Z,9.73
2022-10-11T10:40:55.070Z,11.57
2022-10-11T10:43:28.704Z,10.07
2022-10-11T10:46:22.854Z,9.07
2022-10-11T10:49:34.566Z,9.05
2022-10-11T10:52:05.898Z,12.40
2022-10-11T10:55:00.703Z,9.95
2022-10-11T10:57:36.985Z,9.48
2022-10-11T11:00:14.951Z,10.25
2022-10-11T11:03:03.497Z,8.98
2022-10-11T11:05:44.469Z,9.85
2022-10-11T11:08:35.305Z,9.05
2022-10-11T11:11:23.048Z,10.20
2022-10-11T11:13:58.539Z,9.60
2022-10-11T11:16:31.051Z,9.38
2022-10-11T11:19:09.155Z,7.90
2022-10-11T11:21:48.157Z,8.45
2022-10-11T11:24:47.290Z,10.65
2022-10-11T11:27:38.493Z,10.82
2022-10-11T11:30:10.334Z,8.27
2022-10-11T11:32:48.445Z,11.68
2022-10-11T11:35:26.153Z,10.27
2022-10-11T11:38:03.825Z,10.27
2022-10-11T11:40:41.418Z,7.63
2022-10-11T11:43:35.132Z,11.18
2022-10-11T11:46:10.175Z,12.52
2022-10-11T11:48:38.324Z,13.52
2022-10-11T11:51:25.530Z,10.73
2022-10-11T11:56:59.696Z,9.90
2022-10-11T11:59:47.705Z,11.00
2022-10-11T12:02:51.579Z,9.75
2022-10-11T12:05:22.626Z,10.43
2022-10-11T12:07:56.386Z,11.55
2022-10-11T12:10:49.200Z,10.20
2022-10-11T12:13:32.175Z,11.10
2022-10-11T12:16:15.177Z,6.53
2022-10-11T12:18:56.990Z,6.40
2022-10-11T12:21:31.579Z,9.23
2022-10-11T12:24:12.522Z,7.18
2022-10-11T12:26:47.620Z,10.32
2022-10-11T12:29:17.053Z,7.22
2022-10-11T12:32:14.092Z,7.95
2022-10-11T12:34:42.871Z,7.43
2022-10-11T12:37:18.733Z,8.88
2022-10-11T12:39:51.938Z,6.18
2022-10-11T12:42:36.880Z,6.78
2022-10-11T12:45:12.719Z,7.75
2022-10-11T12:47:52.101Z,9.05
2022-10-11T12:50:39.101Z,8.80
2022-10-11T12:53:34.430Z,11.23
2022-10-11T12:56:16.424Z,8.10
2022-10-11T12:58:47.744Z,10.35
2022-10-11T13:01:18.591Z,7.18
2022-10-11T13:03:50.801Z,11.35
2022-10-11T13:06:26.880Z,9.60
2022-10-11T13:09:16.827Z,7.13
2022-10-11T13:11:50.767Z,12.07
2022-10-11T13:14:20.394Z,6.50
2022-10-11T13:17:06.210Z,7.80
2022-10-11T13:19:35.032Z,8.45
2022-10-11T13:22:14.997Z,9.98
2022-10-11T13:24:42.472Z,6.05
2022-10-11T13:27:18.584Z,10.23
2022-10-11T13:29:46.171Z,12.70
2022-10-11T13:32:23.721Z,8.38
2022-10-11T13:35:00.394Z,7.97
2022-10-11T13:37:29.766Z,13.05
2022-10-11T13:39:57.429Z,9.35
2022-10-11T13:42:29.012Z,12.48
2022-10-11T13:44:55.592Z,16.02
2022-10-11T13:47:27.282Z,7.20
2022-10-11T13:50:22.486Z,11.10
2022-10-11T13:53:23.003Z,6.38
2022-10-11T13:55:55.900Z,8.10
2022-10-11T13:58:28.213Z,7.82
2022-10-11T14:01:07.202Z,11.75
2022-10-11T14:03:40.487Z,8.95
2022-10-11T14:06:07.778Z,10.43
2022-10-11T14:08:51.739Z,9.13
2022-10-11T14:13:58.678Z,9.80
2022-10-11T14:16:24.998Z,11.05
2022-10-11T14:19:03.039Z,8.15
2022-10-11T14:21:33.414Z,5.18
2022-10-11T14:24:06.127Z,9.02
2022-10-11T14:26:38.205Z,10.75
2022-10-11T14:29:21.007Z,8.80
2022-10-11T14:31:47.495Z,8.48
2022-10-11T14:34:18.819Z,8.82
2022-10-11T14:36:45.381Z,9.15
2022-10-11T14:39:18.391Z,8.95
2022-10-11T14:41:45.915Z,11.55
2022-10-11T14:44:13.062Z,5.53
2022-10-11T14:46:40.811Z,10.63
2022-10-11T14:49:35.078Z,9.98
2022-10-11T14:52:02.447Z,11.07
2022-10-11T14:54:29.905Z,8.18
2022-10-11T14:56:58.278Z,12.98
2022-10-11T14:59:27.041Z,9.07
2022-10-11T15:01:54.465Z,14.30
2022-10-11T15:04:22.577Z,13.55
2022-10-11T15:06:49.486Z,8.43
2022-10-11T15:09:17.059Z,7.95
2022-10-11T15:11:43.835Z,10.32
2022-10-11T15:14:10.391Z,12.52
2022-10-11T15:16:36.799Z,9.18
2022-10-11T15:19:03.412Z,7.68
2022-10-11T15:21:29.970Z,9.60
2022-10-11T15:23:56.711Z,9.25
2022-10-11T15:26:28.237Z,10.65
2022-10-11T15:28:56.894Z,11.73
2022-10-11T15:31:24.056Z,8.65
2022-10-11T15:33:50.693Z,6.82
2022-10-11T15:36:21.159Z,10.57
2022-10-11T15:38:48.381Z,7.05
2022-10-11T15:41:16.839Z,6.78
2022-10-11T15:43:44.548Z,7.88
2022-10-11T15:46:17.434Z,8.48
2022-10-11T15:48:44.919Z,9.88
2022-10-11T15:51:11.526Z,12.30
2022-10-11T15:53:37.936Z,7.45
2022-10-11T15:56:07.784Z,8.98
2022-10-11T15:58:38.445Z,8.30
2022-10-11T16:01:17.125Z,11.15
2022-10-11T16:03:44.454Z,8.60
2022-10-11T16:06:11.704Z,9.40
2022-10-11T16:08:39.410Z,9.23
2022-10-11T16:11:07.949Z,12.57
2022-10-11T16:13:35.243Z,9.75
2022-10-11T16:16:04.854Z,12.18
2022-10-11T16:18:35.303Z,6.70
2022-10-11T16:21:06.700Z,8.80
2022-10-11T16:23:34.203Z,9.73
2022-10-11T16:26:03.662Z,11.77
2022-10-11T16:28:30.859Z,8.43
2022-10-11T16:30:57.453Z,10.48
2022-10-11T16:33:24.297Z,8.63
2022-10-11T16:35:50.837Z,10.55
2022-10-11T16:38:17.519Z,12.88
2022-10-11T16:40:44.023Z,10.35
2022-10-11T16:43:10.553Z,8.75
2022-10-11T16:45:37.510Z,11.38
2022-10-11T16:48:04.710Z,7.35
2022-10-11T16:50:38.308Z,8.60
2022-10-11T16:53:05.686Z,12.70
2022-10-11T16:55:32.205Z,15.38
2022-10-11T16:57:58.757Z,15.20
2022-10-11T17:00:25.206Z,15.38
2022-10-11T17:02:51.659Z,13.95
2022-10-11T17:05:18.078Z,14.85
2022-10-11T17:07:44.560Z,18.58
2022-10-11T17:10:11.011Z,16.30
2022-10-11T17:12:38.581Z,16.92
2022-10-11T17:15:06.049Z,17.95
2022-10-11T17:17:32.585Z,19.08
2022-10-11T17:19:59.970Z,20.13
2022-10-11T17:22:26.649Z,18.38
2022-10-11T17:24:53.233Z,21.58
2022-10-11T17:27:19.674Z,19.20
2022-10-11T17:29:46.150Z,17.75
2022-10-11T17:32:12.713Z,18.08
2022-10-11T17:34:39.131Z,19.63
2022-10-11T17:37:06.190Z,27.10
2022-10-11T17:39:32.610Z,18.00
2022-10-11T17:42:03.355Z,19.20
2022-10-11T17:44:29.787Z,19.00
2022-10-11T17:46:59.457Z,19.23
2022-10-11T17:49:25.912Z,20.35
2022-10-11T17:51:53.778Z,22.95
2022-10-11T17:54:20.231Z,19.70
2022-10-11T17:56:46.787Z,22.20
2022-10-11T17:59:16.911Z,19.40
2022-10-11T18:01:43.514Z,23.63
2022-10-11T18:04:29.899Z,24.52
2022-10-11T18:06:56.481Z,20.90
2022-10-11T18:09:23.731Z,23.95
2022-10-11T18:11:50.751Z,22.45
2022-10-11T18:14:17.603Z,22.92
2022-10-11T18:16:44.019Z,21.38
2022-10-11T18:19:13.151Z,21.90
2022-10-11T18:21:39.855Z,23.13
2022-10-11T18:24:14.815Z,23.08
2022-10-11T18:26:42.843Z,20.67
2022-10-11T18:29:09.287Z,18.98
2022-10-11T18:31:35.756Z,20.55
2022-10-11T18:34:04.524Z,24.90
2022-10-11T18:36:31.731Z,22.02
2022-10-11T18:39:03.750Z,16.20
2022-10-11T18:41:34.208Z,21.20
2022-10-11T18:44:04.319Z,18.73
2022-10-11T18:46:31.116Z,16.00
2022-10-11T18:49:04.678Z,17.58
2022-10-11T18:51:39.641Z,11.15
2022-10-11T18:54:08.204Z,15.68
2022-10-11T18:56:36.892Z,12.98
2022-10-11T18:59:05.413Z,16.38
2022-10-11T19:01:34.980Z,13.40
2022-10-11T19:04:04.678Z,14.07
2022-10-11T19:06:40.264Z,12.00
2022-10-11T19:09:21.508Z,10.35
2022-10-11T19:11:56.935Z,11.38
2022-10-11T19:14:26.208Z,10.80
2022-10-11T19:16:54.329Z,15.02
2022-10-11T19:19:24.110Z,13.23
2022-10-11T19:21:53.825Z,14.63
2022-10-11T19:24:23.724Z,13.95
2022-10-11T19:26:52.677Z,11.38
2022-10-11T19:29:21.215Z,12.30
2022-10-11T19:31:59.261Z,11.63
2022-10-11T19:34:27.935Z,16.70
2022-10-11T19:36:59.250Z,13.45
2022-10-11T19:39:25.862Z,13.90
2022-10-11T19:41:53.569Z,12.07
2022-10-11T19:44:22.188Z,11.23
2022-10-11T19:46:52.769Z,13.60
2022-10-11T19:49:25.503Z,9.75
2022-10-11T19:51:52.902Z,10.50
2022-10-11T19:54:20.175Z,13.63
2022-10-11T19:56:47.951Z,13.73
2022-10-11T19:59:15.049Z,15.65
2022-10-11T20:01:42.857Z,10.23
2022-10-11T20:04:22.926Z,9.40
2022-10-11T20:06:54.157Z,19.20
2022-10-11T20:09:36.014Z,20.15
2022-10-11T20:12:05.144Z,7.95
2022-10-11T20:14:31.795Z,13.27
2022-10-11T20:16:58.246Z,11.40
2022-10-11T20:19:30.678Z,11.55
2022-10-11T20:21:57.789Z,7.07
2022-10-11T20:24:24.398Z,10.23
2022-10-11T20:26:50.831Z,11.57
2022-10-11T20:29:17.302Z,10.68
2022-10-11T20:31:43.719Z,10.63
2022-10-11T20:34:10.358Z,11.88
2022-10-11T20:36:37.277Z,17.10
2022-10-11T20:39:05.046Z,12.85
2022-10-11T20:41:34.840Z,10.32
2022-10-11T20:44:01.838Z,12.05
2022-10-11T20:46:31.350Z,12.52
2022-10-11T20:49:02.063Z,10.77
2022-10-11T20:51:30.596Z,11.52
2022-10-11T20:53:58.317Z,15.30
2022-10-11T20:56:25.402Z,10.98
2022-10-11T20:58:55.293Z,13.85
2022-10-11T21:01:25.929Z,9.95
2022-10-11T21:03:52.634Z,10.68
2022-10-11T21:06:19.078Z,10.82
2022-10-11T21:08:45.481Z,8.95
2022-10-11T21:11:13.289Z,13.20
2022-10-11T21:13:40.411Z,10.75
2022-10-11T21:16:11.082Z,8.90
2022-10-11T21:18:37.853Z,7.40
2022-10-11T21:21:09.421Z,12.43
2022-10-11T21:23:35.970Z,13.80
2022-10-11T21:26:04.193Z,12.23
2022-10-11T21:28:30.813Z,10.95
2022-10-11T21:31:06.533Z,9.27
2022-10-11T21:33:34.257Z,11.90
2022-10-11T21:36:09.091Z,9.70
2022-10-11T21:38:36.211Z,11.13
2022-10-11T21:41:08.022Z,13.68
2022-10-11T21:43:35.878Z,12.60
2022-10-11T21:46:17.171Z,15.15
2022-10-11T21:48:43.826Z,16.52
2022-10-11T21:51:15.512Z,19.55
2022-10-11T21:56:08.597Z,18.92
2022-10-11T21:58:35.030Z,18.02
2022-10-11T22:01:01.456Z,15.00
2022-10-11T22:03:28.181Z,17.13
2022-10-11T22:05:54.619Z,17.33
2022-10-11T22:08:21.115Z,13.13
2022-10-11T22:10:58.312Z,18.80
2022-10-11T22:13:26.583Z,16.30
2022-10-11T22:15:53.199Z,13.82
2022-10-11T22:18:19.999Z,14.32
2022-10-11T22:20:46.439Z,14.20
2022-10-11T22:23:12.966Z,11.43
2022-10-11T22:25:39.775Z,9.95
2022-10-11T22:28:07.008Z,14.15
2022-10-11T22:30:33.583Z,15.95
2022-10-11T22:33:00.133Z,11.55
2022-10-11T22:35:26.540Z,11.80
2022-10-11T22:37:53.101Z,15.38
2022-10-11T22:40:20.004Z,14.73
2022-10-11T22:42:47.010Z,16.80
2022-10-11T22:45:13.473Z,11.95
2022-10-11T22:47:42.859Z,13.02
2022-10-11T22:50:09.693Z,16.10
2022-10-11T22:52:36.167Z,12.23
2022-10-11T22:55:02.940Z,11.38
2022-10-11T22:57:29.548Z,10.75
2022-10-11T22:59:55.956Z,12.02
2022-10-11T23:02:22.385Z,11.82
2022-10-11T23:04:48.878Z,13.05
2022-10-11T23:07:15.347Z,13.07
2022-10-11T23:09:41.745Z,15.93
2022-10-11T23:12:08.215Z,18.30
2022-10-11T23:14:34.658Z,13.75
2022-10-11T23:17:01.071Z,15.25
2022-10-11T23:19:28.799Z,13.80
2022-10-11T23:21:55.437Z,10.45
2022-10-11T23:24:22.078Z,12.23
2022-10-11T23:26:48.531Z,10.75
2022-10-11T23:29:14.963Z,19.60
2022-10-11T23:31:41.378Z,10.20
2022-10-11T23:34:07.854Z,16.05
2022-10-11T23:36:35.740Z,15.98
2022-10-11T23:39:02.324Z,12.90
2022-10-11T23:41:29.947Z,13.27
2022-10-11T23:43:56.967Z,11.55
2022-10-11T23:46:23.585Z,12.82
2022-10-11T23:48:50.320Z,10.88
2022-10-11T23:51:16.723Z,13.07
2022-10-11T23:53:43.475Z,11.23
2022-10-11T23:56:11.250Z,13.75
2022-10-11T23:58:39.535Z,10.27
